Time;durP1;ratioP1;P1;durP2;ratioP2;P2;SDS_P1;SDS_P2;PMS_P1;PMS_P2;Temp;Humidity;BMP_temperature;BMP_pressure;BME280_temperature;BME280_humidity;BME280_pressure;Samples;Min_cycle;Max_cycle;Signal;HPM_P1;HPM_P2
2022/09/25 00:00:09;;;;;;;;;;;15.10;99.90;15.10;99164.00;;;;341120;28;88828;-90
2022/09/25 00:00:21;;;;;;;3.20;1.92;;;15.10;99.90;15.10;99165.00;;;;338237;28;82602;-91
2022/09/25 00:00:33;;;;;;;3.60;2.50;;;15.10;99.90;15.20;99167.00;;;;339846;28;90597;-90
2022/09/25 00:00:48;;;;;;;3.63;2.50;;;15.10;99.90;15.30;99158.00;;;;340676;28;83596;-91
2022/09/25 00:01:00;;;;;;;4.80;2.60;;;15.10;99.90;15.40;99167.00;;;;339890;28;89688;-91
2022/09/25 00:01:12;;;;;;;5.53;2.85;;;15.20;99.90;15.50;99162.00;;;;338433;28;83407;-91
2022/09/25 00:01:24;;;;;;;5.28;2.70;;;15.20;99.90;15.40;99171.00;;;;339999;28;90827;-90
2022/09/25 00:01:36;;;;;;;5.45;2.65;;;15.20;99.90;15.40;99169.00;;;;338574;28;83537;-90
2022/09/25 00:01:48;;;;;;;5.07;2.33;;;15.20;99.90;15.50;99161.00;;;;340193;28;91581;-90
2022/09/25 00:02:00;;;;;;;4.30;2.20;;;15.20;99.90;15.40;99161.00;;;;337946;28;83639;-91
2022/09/25 00:02:12;;;;;;;4.25;2.00;;;15.20;99.90;15.30;99168.00;;;;336585;28;92636;-92
2022/09/25 00:02:24;;;;;;;5.43;2.30;;;15.30;99.90;15.20;99159.00;;;;339211;28;83484;-91
2022/09/25 00:02:36;;;;;;;5.45;2.40;;;15.20;99.90;15.20;99164.00;;;;337650;28;92314;-91
2022/09/25 00:02:48;;;;;;;4.60;2.70;;;15.20;99.90;15.10;99152.00;;;;336999;28;82639;-92
2022/09/25 00:03:00;;;;;;;2.85;2.35;;;15.20;99.90;15.10;99159.00;;;;339896;28;88050;-89
2022/09/25 00:03:12;;;;;;;3.30;2.42;;;15.20;99.90;15.10;99161.00;;;;336660;28;83974;-91
2022/09/25 00:03:26;;;;;;;4.50;2.88;;;15.20;99.90;15.20;99152.00;;;;339564;28;92794;-92
2022/09/25 00:03:38;;;;;;;5.28;2.78;;;15.20;99.90;15.20;99152.00;;;;337707;28;83591;-92
2022/09/25 00:03:50;;;;;;;4.38;2.15;;;15.20;99.90;15.20;99159.00;;;;340259;28;92197;-92
2022/09/25 00:04:02;;;;;;;3.33;2.15;;;15.20;99.90;15.20;99162.00;;;;337316;28;83643;-92
2022/09/25 00:04:14;;;;;;;3.40;2.13;;;15.20;99.90;15.30;99165.00;;;;339521;28;89929;-92
2022/09/25 00:04:26;;;;;;;6.07;2.38;;;15.20;99.90;15.40;99167.00;;;;337175;28;82556;-92
2022/09/25 00:04:38;;;;;;;7.38;2.45;;;15.20;99.90;15.40;99158.00;;;;337179;28;89534;-92
2022/09/25 00:04:50;;;;;;;7.40;2.60;;;15.20;99.90;15.40;99157.00;;;;341628;28;83418;-92
2022/09/25 00:05:01;;;;;;;4.05;2.45;;;15.20;99.90;15.50;99154.00;;;;339317;28;90194;-92
2022/09/25 00:05:13;;;;;;;3.50;2.22;;;15.30;99.90;15.60;99157.00;;;;336887;28;83540;-91
2022/09/25 00:05:25;;;;;;;4.25;2.17;;;15.30;99.90;15.60;99164.00;;;;333846;28;90399;-92
2022/09/25 00:05:38;;;;;;;5.25;2.45;;;15.30;99.90;15.50;99160.00;;;;341741;28;82427;-93
2022/09/25 00:05:50;;;;;;;4.22;2.50;;;15.30;99.90;15.40;99160.00;;;;337434;28;90007;-92
2022/09/25 00:06:20;;;;;;;3.22;2.63;;;15.30;99.90;15.40;99160.00;;;;338741;28;84316;-92
2022/09/25 00:06:34;;;;;;;5.25;2.45;;;15.30;99.90;15.10;99162.00;;;;339575;28;89212;-92
2022/09/25 00:06:48;;;;;;;4.97;2.33;;;15.30;99.90;15.10;99152.00;;;;338161;28;83651;-92
2022/09/25 00:07:00;;;;;;;4.82;1.98;;;15.30;99.90;15.00;99165.00;;;;335866;28;89036;-91
2022/09/25 00:07:11;;;;;;;3.85;1.95;;;15.20;99.90;15.00;99165.00;;;;339064;28;82681;-92
2022/09/25 00:07:23;;;;;;;4.03;2.00;;;15.20;99.90;15.00;99164.00;;;;338405;28;90363;-91
2022/09/25 00:07:35;;;;;;;3.83;2.22;;;15.20;99.90;15.00;99163.00;;;;341484;28;83515;-92
2022/09/25 00:07:47;;;;;;;3.38;2.10;;;15.20;99.90;15.20;99166.00;;;;339039;28;89560;-92
2022/09/25 00:07:59;;;;;;;3.28;2.05;;;15.20;99.90;15.30;99171.00;;;;338323;28;83695;-90
2022/09/25 00:08:11;;;;;;;3.30;2.10;;;15.20;99.90;15.40;99165.00;;;;336132;28;88723;-91
2022/09/25 00:08:23;;;;;;;3.05;2.17;;;15.20;99.90;15.30;99160.00;;;;338344;28;84467;-92
2022/09/25 00:08:35;;;;;;;3.00;1.92;;;15.20;99.90;15.40;99159.00;;;;337111;28;90914;-91
2022/09/25 00:08:47;;;;;;;3.55;2.25;;;15.20;99.90;15.40;99163.00;;;;340381;28;83318;-90
2022/09/25 00:09:00;;;;;;;3.45;2.22;;;15.20;99.90;15.30;99169.00;;;;338319;28;92106;-90
2022/09/25 00:09:13;;;;;;;2.78;1.90;;;15.20;99.90;15.20;99165.00;;;;342232;28;84255;-90
2022/09/25 00:09:25;;;;;;;2.53;1.70;;;15.20;99.90;15.20;99169.00;;;;339440;28;89892;-89
2022/09/25 00:09:37;;;;;;;3.03;1.90;;;15.20;99.90;15.10;99162.00;;;;339585;28;83492;-90
2022/09/25 00:09:49;;;;;;;3.08;1.83;;;15.20;99.90;15.00;99167.00;;;;339024;28;91708;-90
2022/09/25 00:10:00;;;;;;;2.50;1.50;;;15.20;99.90;15.10;99168.00;;;;335634;28;83732;-90
2022/09/25 00:10:12;;;;;;;2.50;1.67;;;15.10;99.90;15.20;99164.00;;;;338486;28;89770;-90
2022/09/25 00:10:24;;;;;;;2.80;1.95;;;15.10;99.90;15.20;99167.00;;;;339563;28;83574;-89
2022/09/25 00:10:40;;;;;;;2.83;2.10;;;15.10;99.90;15.20;99167.00;;;;336033;28;89988;-91
2022/09/25 00:10:52;;;;;;;2.92;1.92;;;15.20;99.90;15.00;99168.00;;;;336318;28;83520;-91
2022/09/25 00:11:13;;;;;;;3.20;1.83;;;15.10;99.90;15.00;99165.00;;;;340717;28;91464;-90
2022/09/25 00:11:28;;;;;;;3.65;1.75;;;15.10;99.90;14.90;99167.00;;;;338445;28;84047;-91
2022/09/25 00:11:40;;;;;;;2.70;1.48;;;15.10;99.90;14.90;99176.00;;;;338244;28;88576;-91
2022/09/25 00:11:52;;;;;;;2.47;1.20;;;15.10;99.90;15.00;99168.00;;;;337678;28;83511;-91
2022/09/25 00:12:03;;;;;;;2.17;1.35;;;15.00;99.90;15.10;99163.00;;;;338270;28;91363;-90
2022/09/25 00:12:15;;;;;;;2.40;1.83;;;15.00;99.90;15.00;99165.00;;;;337537;28;85243;-90
2022/09/25 00:12:27;;;;;;;2.67;1.85;;;15.10;99.90;15.10;99162.00;;;;336869;28;89069;-90
2022/09/25 00:12:41;;;;;;;2.85;2.03;;;15.00;99.90;15.10;99164.00;;;;340259;28;84766;-90
2022/09/25 00:12:52;;;;;;;2.15;1.70;;;15.10;99.90;15.30;99172.00;;;;336882;28;89262;-89
2022/09/25 00:13:04;;;;;;;2.25;1.80;;;15.10;99.90;15.30;99167.00;;;;339952;28;83007;-91
2022/09/25 00:13:18;;;;;;;3.47;1.83;;;15.10;99.90;15.30;99167.00;;;;339986;28;91443;-91
2022/09/25 00:13:30;;;;;;;4.00;1.90;;;15.10;99.90;15.20;99166.00;;;;339945;28;82540;-91
2022/09/25 00:13:43;;;;;;;3.78;1.60;;;15.10;99.90;15.30;99165.00;;;;337999;28;92788;-91
2022/09/25 00:13:55;;;;;;;2.33;1.33;;;15.10;99.90;15.20;99160.00;;;;336258;28;82484;-91
2022/09/25 00:14:08;;;;;;;2.03;1.20;;;15.10;99.90;15.20;99167.00;;;;339818;28;89643;-91
2022/09/25 00:14:19;;;;;;;2.78;1.25;;;15.10;99.90;15.30;99176.00;;;;340293;28;83317;-90
2022/09/25 00:14:31;;;;;;;2.63;1.20;;;15.10;99.90;15.30;99166.00;;;;338701;28;87925;-91
2022/09/25 00:14:43;;;;;;;2.90;1.58;;;15.20;99.90;15.30;99170.00;;;;339205;28;82545;-91
2022/09/25 00:14:55;;;;;;;2.95;1.70;;;15.10;99.90;15.40;99170.00;;;;338920;28;89799;-90
2022/09/25 00:15:07;;;;;;;2.13;1.55;;;15.20;99.90;15.40;99173.00;;;;341161;28;83889;-90
2022/09/25 00:15:19;;;;;;;2.40;1.30;;;15.20;99.90;15.40;99166.00;;;;337379;28;89365;-91
2022/09/25 00:15:31;;;;;;;3.10;1.23;;;15.20;99.90;15.30;99166.00;;;;338701;28;83426;-91
2022/09/25 00:15:54;;;;;;;3.30;1.23;;;15.20;99.90;15.30;99167.00;;;;337974;28;90257;-90
2022/09/25 00:16:11;;;;;;;2.65;1.05;;;15.20;99.90;15.40;99171.00;;;;335537;28;84942;-91
2022/09/25 00:16:25;;;;;;;1.92;0.90;;;15.30;99.90;15.30;99170.00;;;;339613;28;89942;-90
2022/09/25 00:16:37;;;;;;;2.13;0.98;;;15.20;99.90;15.40;99174.00;;;;336731;28;82715;-91
2022/09/25 00:16:49;;;;;;;2.22;1.02;;;15.20;99.90;15.30;99163.00;;;;334259;29;88889;-91
2022/09/25 00:17:01;;;;;;;2.35;1.00;;;15.20;99.90;15.30;99169.00;;;;336897;28;85013;-91
2022/09/25 00:17:13;;;;;;;1.88;0.90;;;15.20;99.90;15.20;99171.00;;;;334689;29;88974;-91
2022/09/25 00:17:25;;;;;;;1.90;1.10;;;15.20;99.90;15.10;99168.00;;;;337436;28;83767;-90
2022/09/25 00:17:38;;;;;;;1.92;1.17;;;15.20;99.90;15.20;99162.00;;;;341245;28;88618;-92
2022/09/25 00:17:50;;;;;;;2.00;1.20;;;15.20;99.90;15.10;99169.00;;;;340957;28;83467;-91
2022/09/25 00:18:02;;;;;;;1.77;0.98;;;15.20;99.90;15.00;99169.00;;;;337840;28;89769;-90
2022/09/25 00:18:14;;;;;;;2.88;1.10;;;15.20;99.90;15.10;99164.00;;;;337347;28;85629;-91
2022/09/25 00:19:59;;;;;;;2.80;0.98;;;15.20;99.90;15.40;99164.00;;;;341047;28;82518;-91
2022/09/25 00:20:11;;;;;;;1.98;0.75;;;15.20;99.90;15.50;99168.00;;;;338220;28;87529;-92
2022/09/25 00:20:23;;;;;;;1.80;0.70;;;15.20;99.90;15.40;99165.00;;;;339730;28;83585;-92
2022/09/25 00:20:35;;;;;;;1.50;0.80;;;15.20;99.90;15.30;99168.00;;;;334486;29;91843;-91
2022/09/25 00:20:47;;;;;;;1.50;0.85;;;15.20;99.90;15.30;99165.00;;;;338634;28;83860;-92
2022/09/25 00:21:00;;;;;;;2.00;0.98;;;15.20;99.90;15.20;99164.00;;;;338216;28;90978;-91
2022/09/25 00:21:14;;;;;;;2.70;1.02;;;15.20;99.90;15.30;99159.00;;;;339984;28;82583;-92
2022/09/25 00:21:29;;;;;;;4.22;1.10;;;15.20;99.90;15.40;99158.00;;;;338539;28;88858;-92
2022/09/25 00:21:42;;;;;;;3.60;1.00;;;15.20;99.90;15.40;99160.00;;;;340973;28;85537;-93
2022/09/25 00:21:54;;;;;;;2.00;0.77;;;15.20;99.90;15.40;99166.00;;;;338653;28;89404;-93
2022/09/25 00:22:06;;;;;;;1.50;0.70;;;15.20;99.90;15.40;99157.00;;;;338153;28;82604;-92
2022/09/25 00:22:20;;;;;;;1.70;0.80;;;15.30;99.90;15.50;99165.00;;;;335050;28;88615;-92
2022/09/25 00:22:32;;;;;;;1.73;0.70;;;15.30;99.90;15.40;99171.00;;;;335527;29;82264;-93
2022/09/25 00:22:43;;;;;;;1.73;0.77;;;15.30;99.90;15.40;99158.00;;;;333881;28;89341;-94
2022/09/25 00:22:55;;;;;;;2.25;0.70;;;15.30;99.90;15.40;99155.00;;;;339308;28;82682;-92
2022/09/25 00:23:07;;;;;;;2.45;0.77;;;15.30;99.90;15.40;99152.00;;;;338206;28;89343;-93
2022/09/25 00:23:19;;;;;;;1.73;0.90;;;15.30;99.90;15.40;99164.00;;;;337497;28;83369;-93
2022/09/25 00:23:32;;;;;;;2.17;1.05;;;15.30;99.90;15.40;99156.00;;;;341869;28;91644;-93
2022/09/25 00:23:45;;;;;;;1.80;0.88;;;15.30;99.90;15.40;99158.00;;;;338473;28;83809;-94
2022/09/25 00:23:59;;;;;;;1.77;0.85;;;15.30;99.90;15.50;99160.00;;;;335982;28;88718;-92
2022/09/25 00:24:12;;;;;;;1.92;0.95;;;15.30;99.90;15.50;99160.00;;;;341301;28;82487;-93
2022/09/25 00:24:25;;;;;;;1.67;0.88;;;15.30;99.90;15.40;99162.00;;;;337531;28;92561;-93
2022/09/25 00:24:36;;;;;;;1.95;1.00;;;15.30;99.90;15.40;99158.00;;;;337519;28;83436;-93
2022/09/25 00:24:49;;;;;;;2.15;1.20;;;15.30;99.90;15.40;99156.00;;;;341482;28;89645;-93
2022/09/25 00:25:02;;;;;;;2.00;0.93;;;15.30;99.90;15.50;99152.00;;;;339896;28;84553;-93
2022/09/25 00:25:14;;;;;;;2.28;0.60;;;15.30;99.90;15.50;99158.00;;;;338946;28;91267;-93
2022/09/25 00:25:27;;;;;;;3.30;0.73;;;15.40;99.90;15.60;99149.00;;;;338079;28;83510;-94
2022/09/25 00:25:39;;;;;;;2.58;0.80;;;15.40;99.90;15.50;99159.00;;;;336096;28;90815;-93
2022/09/25 00:25:55;;;;;;;1.30;0.65;;;15.40;99.90;15.40;99166.00;;;;338600;28;82778;-93
2022/09/25 00:26:07;;;;;;;1.52;0.75;;;15.40;99.90;15.50;99151.00;;;;334683;28;92693;-93
2022/09/25 00:26:19;;;;;;;2.80;0.90;;;15.30;99.90;15.50;99147.00;;;;340541;28;84158;-92
2022/09/25 00:26:34;;;;;;;2.90;1.00;;;15.40;99.90;15.40;99155.00;;;;337863;28;91075;-92
2022/09/25 00:26:45;;;;;;;2.63;1.05;;;15.40;99.90;15.40;99152.00;;;;336253;28;83543;-93
2022/09/25 00:26:58;;;;;;;2.50;1.00;;;15.40;99.90;15.50;99153.00;;;;338550;28;90672;-93
2022/09/25 00:27:10;;;;;;;3.10;1.00;;;15.40;99.90;15.60;99158.00;;;;336925;28;82895;-93
2022/09/25 00:27:22;;;;;;;2.00;1.00;;;15.40;99.90;15.50;99156.00;;;;339203;28;89571;-93
2022/09/25 00:27:34;;;;;;;1.67;0.80;;;15.40;99.90;15.40;99150.00;;;;336595;28;82544;-93
2022/09/25 00:27:49;;;;;;;1.52;0.75;;;15.40;99.90;15.30;99158.00;;;;337487;28;89948;-93
2022/09/25 00:28:01;;;;;;;1.80;0.90;;;15.40;99.90;15.30;99160.00;;;;337764;28;83204;-93
2022/09/25 00:28:12;;;;;;;1.70;1.00;;;15.40;99.90;15.30;99157.00;;;;341101;28;89679;-92
2022/09/25 00:28:30;;;;;;;1.48;0.85;;;15.40;99.90;15.30;99156.00;;;;340856;28;82856;-92
2022/09/25 00:28:42;;;;;;;1.42;0.70;;;15.40;99.90;15.30;99152.00;;;;341053;28;91309;-92
2022/09/25 00:28:55;;;;;;;1.55;0.60;;;15.40;99.90;15.20;99152.00;;;;338164;28;83559;-92
2022/09/25 00:29:09;;;;;;;1.35;0.50;;;15.30;99.90;15.10;99155.00;;;;341672;28;90761;-92
2022/09/25 00:29:21;;;;;;;1.10;0.50;;;15.30;99.90;15.10;99153.00;;;;335869;28;82809;-93
2022/09/25 00:29:37;;;;;;;1.50;0.50;;;15.30;99.90;15.20;99147.00;;;;338090;28;90062;-93
2022/09/25 00:29:49;;;;;;;1.40;0.50;;;15.30;99.90;15.10;99159.00;;;;339655;28;83449;-92
2022/09/25 00:30:02;;;;;;;1.15;0.73;;;15.20;99.90;15.10;99147.00;;;;337034;28;90900;-93
2022/09/25 00:30:14;;;;;;;1.35;0.77;;;15.20;99.90;15.00;99147.00;;;;337590;28;83426;-92
2022/09/25 00:30:26;;;;;;;1.42;0.73;;;15.20;99.90;15.00;99157.00;;;;334608;28;89484;-92
2022/09/25 00:30:39;;;;;;;1.42;0.60;;;15.10;99.90;15.00;99157.00;;;;341411;28;83606;-92
2022/09/25 00:30:51;;;;;;;1.33;0.57;;;15.10;99.90;15.10;99159.00;;;;336915;28;91170;-92
2022/09/25 00:31:04;;;;;;;1.30;0.60;;;15.10;99.90;15.20;99161.00;;;;340484;28;82587;-93
2022/09/25 00:31:23;;;;;;;1.20;0.60;;;15.10;99.90;15.20;99156.00;;;;336658;28;91083;-93
2022/09/25 00:31:35;;;;;;;1.40;0.73;;;15.10;99.90;15.30;99154.00;;;;337369;28;83311;-93
2022/09/25 00:31:47;;;;;;;2.00;0.75;;;15.10;99.90;15.30;99156.00;;;;337592;28;88363;-93
2022/09/25 00:31:58;;;;;;;2.47;0.70;;;15.10;99.90;15.30;99148.00;;;;338776;28;84716;-93
2022/09/25 00:32:10;;;;;;;2.13;0.60;;;15.20;99.90;15.30;99147.00;;;;336029;28;92786;-92
2022/09/25 00:32:22;;;;;;;1.65;0.60;;;15.20;99.90;15.30;99147.00;;;;337502;28;83344;-93
2022/09/25 00:32:34;;;;;;;1.60;0.60;;;15.20;99.90;15.30;99151.00;;;;338420;28;89662;-92
2022/09/25 00:32:46;;;;;;;1.48;0.52;;;15.20;99.90;15.20;99144.00;;;;338012;28;83663;-92
2022/09/25 00:32:58;;;;;;;1.60;0.65;;;15.20;99.90;15.10;99148.00;;;;338520;28;88478;-93
2022/09/25 00:33:09;;;;;;;1.50;0.80;;;15.20;99.90;15.20;99159.00;;;;339591;28;83394;-92
2022/09/25 00:33:22;;;;;;;2.38;0.93;;;15.10;99.90;15.30;99155.00;;;;338169;28;92439;-93
2022/09/25 00:33:34;;;;;;;2.72;0.75;;;15.10;99.90;15.10;99161.00;;;;337132;28;84304;-92
2022/09/25 00:33:46;;;;;;;3.60;0.70;;;15.10;99.90;15.00;99154.00;;;;336990;28;87474;-93
2022/09/25 00:34:00;;;;;;;2.33;0.65;;;15.10;99.90;15.00;99148.00;;;;339159;28;83213;-92
2022/09/25 00:34:12;;;;;;;1.38;0.57;;;15.10;99.90;15.00;99148.00;;;;338870;28;88896;-93
2022/09/25 00:34:24;;;;;;;1.90;0.63;;;15.10;99.90;15.10;99150.00;;;;340270;28;82462;-93
2022/09/25 00:34:37;;;;;;;1.55;0.50;;;15.10;99.90;15.20;99154.00;;;;340215;28;90214;-93
2022/09/25 00:34:49;;;;;;;1.00;0.63;;;15.10;99.90;15.30;99152.00;;;;339864;28;83556;-92
2022/09/25 00:35:01;;;;;;;1.20;0.70;;;15.10;99.90;15.30;99152.00;;;;338430;28;89645;-92
2022/09/25 00:35:13;;;;;;;1.40;0.70;;;15.10;99.90;15.30;99152.00;;;;337114;28;82534;-93
2022/09/25 00:35:25;;;;;;;1.10;0.60;;;15.10;99.90;15.30;99157.00;;;;338189;28;92416;-93
2022/09/25 00:35:36;;;;;;;1.10;0.60;;;15.10;99.90;15.30;99152.00;;;;338857;28;83549;-93
2022/09/25 00:35:48;;;;;;;1.55;0.50;;;15.10;99.90;15.40;99150.00;;;;338360;28;91218;-93
2022/09/25 00:36:05;;;;;;;1.60;0.60;;;15.10;99.90;15.30;99156.00;;;;336227;28;83073;-92
2022/09/25 00:36:18;;;;;;;1.55;0.60;;;15.20;99.90;15.40;99148.00;;;;339071;28;91178;-91
2022/09/25 00:36:30;;;;;;;1.77;0.65;;;15.20;99.90;15.30;99151.00;;;;335311;28;83582;-92
2022/09/25 00:36:41;;;;;;;1.83;0.80;;;15.20;99.90;15.20;99155.00;;;;338676;28;88638;-93
2022/09/25 00:36:53;;;;;;;1.27;0.68;;;15.20;99.90;15.30;99148.00;;;;340215;28;82531;-93
2022/09/25 00:37:05;;;;;;;1.27;0.40;;;15.20;99.90;15.40;99147.00;;;;337842;28;88725;-93
2022/09/25 00:37:17;;;;;;;1.83;0.40;;;15.20;99.90;15.40;99144.00;;;;340353;28;83377;-93
2022/09/25 00:37:32;;;;;;;2.70;0.50;;;15.20;99.90;15.40;99148.00;;;;341899;28;91773;-92
2022/09/25 00:37:44;;;;;;;2.38;0.50;;;15.20;99.90;15.30;99151.00;;;;337562;28;83531;-92
2022/09/25 00:37:56;;;;;;;1.92;0.40;;;15.20;99.90;15.30;99156.00;;;;336991;28;90108;-92
2022/09/25 00:38:08;;;;;;;1.08;0.32;;;15.20;99.90;15.30;99154.00;;;;338939;28;82790;-93
2022/09/25 00:38:20;;;;;;;1.00;0.40;;;15.20;99.90;15.20;99154.00;;;;339102;28;90606;-93
2022/09/25 00:38:32;;;;;;;1.00;0.40;;;15.20;99.90;15.40;99147.00;;;;338699;28;82829;-92
2022/09/25 00:38:47;;;;;;;1.00;0.40;;;15.20;99.90;15.40;99151.00;;;;338406;28;87957;-91
2022/09/25 00:38:59;;;;;;;1.35;0.40;;;15.20;99.90;15.40;99150.00;;;;339775;28;82560;-91
2022/09/25 00:39:10;;;;;;;1.45;0.50;;;15.20;99.90;15.50;99151.00;;;;335931;28;88426;-93
2022/09/25 00:39:23;;;;;;;1.42;0.55;;;15.20;99.90;15.40;99147.00;;;;340756;28;83713;-93
2022/09/25 00:39:34;;;;;;;2.00;0.68;;;15.20;99.90;15.20;99153.00;;;;333427;28;88589;-93
2022/09/25 00:39:46;;;;;;;2.05;0.70;;;15.20;99.90;15.40;99153.00;;;;340684;28;82856;-92
2022/09/25 00:39:58;;;;;;;2.75;1.23;;;15.20;99.90;15.40;99155.00;;;;338346;28;92172;-90
2022/09/25 00:40:10;;;;;;;2.50;1.50;;;15.20;99.90;15.40;99149.00;;;;340536;28;83508;-91
2022/09/25 00:40:23;;;;;;;2.05;1.00;;;15.20;99.90;15.30;99145.00;;;;337237;28;90773;-93
2022/09/25 00:40:35;;;;;;;1.52;0.70;;;15.20;99.90;15.20;99159.00;;;;337589;28;82848;-92
2022/09/25 00:40:47;;;;;;;1.75;0.60;;;15.20;99.90;15.30;99155.00;;;;340396;28;92217;-92
2022/09/25 00:40:59;;;;;;;1.67;0.65;;;15.20;99.90;15.30;99157.00;;;;339006;28;82552;-92
2022/09/25 00:41:11;;;;;;;1.48;0.50;;;15.20;99.90;15.00;99157.00;;;;342385;28;89750;-91
2022/09/25 00:41:25;;;;;;;1.27;0.40;;;15.20;99.90;15.00;99147.00;;;;337634;28;83714;-92
2022/09/25 00:41:37;;;;;;;1.30;0.40;;;15.10;99.90;15.00;99156.00;;;;337139;28;92028;-92
2022/09/25 00:41:49;;;;;;;1.50;0.30;;;15.10;99.90;15.00;99147.00;;;;338261;28;84158;-92
2022/09/25 00:42:01;;;;;;;1.52;0.40;;;15.10;99.90;15.20;99155.00;;;;339729;28;90925;-92
2022/09/25 00:42:13;;;;;;;1.67;0.45;;;15.10;99.90;15.20;99151.00;;;;337674;28;83496;-92
2022/09/25 00:42:25;;;;;;;2.22;0.70;;;15.10;99.90;15.30;99156.00;;;;336727;28;92511;-92
2022/09/25 00:42:37;;;;;;;2.58;0.85;;;15.10;99.90;15.20;99160.00;;;;337793;28;83362;-92
2022/09/25 00:42:49;;;;;;;3.58;0.77;;;15.10;99.90;15.20;99149.00;;;;334903;28;90578;-92
2022/09/25 00:43:01;;;;;;;2.40;0.50;;;15.10;99.90;15.30;99159.00;;;;337667;28;83429;-92
2022/09/25 00:43:14;;;;;;;2.25;0.32;;;15.10;99.90;15.10;99152.00;;;;339625;28;91894;-92
2022/09/25 00:43:40;;;;;;;1.95;0.60;;;15.10;99.90;15.10;99155.00;;;;339000;28;83846;-91
2022/09/25 00:43:55;;;;;;;1.85;0.43;;;15.10;99.90;15.20;99153.00;;;;340446;28;91162;-92
2022/09/25 00:45:03;;;;;;;1.58;0.40;;;15.10;99.90;15.20;99151.00;;;;337082;28;83449;-92
2022/09/25 00:45:19;;;;;;;1.33;0.50;;;15.10;99.90;15.20;99158.00;;;;337211;28;90184;-92
2022/09/25 00:45:31;;;;;;;1.10;0.40;;;15.10;99.90;15.20;99153.00;;;;340954;28;83847;-92
2022/09/25 00:45:43;;;;;;;0.93;0.20;;;15.10;99.90;15.30;99150.00;;;;338811;28;90214;-92
2022/09/25 00:45:55;;;;;;;1.27;0.30;;;15.10;99.90;15.20;99152.00;;;;338687;28;82487;-91
2022/09/25 00:46:11;;;;;;;2.03;0.30;;;15.10;99.90;15.10;99151.00;;;;338063;28;88690;-91
2022/09/25 00:46:25;;;;;;;1.45;0.30;;;15.10;99.90;15.10;99152.00;;;;337245;28;83407;-92
2022/09/25 00:46:41;;;;;;;1.20;0.40;;;15.10;99.90;15.20;99158.00;;;;337645;28;89962;-91
2022/09/25 00:46:53;;;;;;;1.15;0.50;;;15.10;99.90;15.30;99152.00;;;;337632;28;83754;-92
2022/09/25 00:47:04;;;;;;;1.17;0.52;;;15.10;99.90;15.30;99161.00;;;;338040;28;89829;-92
2022/09/25 00:47:20;;;;;;;1.08;0.57;;;15.10;99.90;15.30;99158.00;;;;339260;28;82648;-91
2022/09/25 00:47:37;;;;;;;1.30;0.60;;;15.10;99.90;15.20;99156.00;;;;339588;28;88703;-92
2022/09/25 00:48:05;;;;;;;1.67;0.82;;;15.10;99.90;15.40;99164.00;;;;338316;28;82568;-92
2022/09/25 00:48:17;;;;;;;1.98;1.10;;;15.10;99.90;15.40;99152.00;;;;336062;28;92127;-92
2022/09/25 00:48:29;;;;;;;1.55;0.70;;;15.10;99.90;15.30;99159.00;;;;341991;28;83781;-92
2022/09/25 00:48:54;;;;;;;1.83;0.60;;;15.10;99.90;15.30;99154.00;;;;340043;28;88841;-92
2022/09/25 00:49:13;;;;;;;2.47;0.98;;;15.10;99.90;15.40;99161.00;;;;337108;28;83534;-92
2022/09/25 00:49:25;;;;;;;2.38;1.08;;;15.10;99.90;15.50;99157.00;;;;341366;28;89583;-92
2022/09/25 00:49:37;;;;;;;1.70;0.90;;;15.20;99.90;15.30;99156.00;;;;337286;28;83952;-92
2022/09/25 00:49:50;;;;;;;1.80;0.80;;;15.20;99.90;15.30;99161.00;;;;338998;28;90840;-90
2022/09/25 00:50:03;;;;;;;2.03;0.80;;;15.20;99.90;15.40;99157.00;;;;337775;28;83678;-92
2022/09/25 00:50:26;;;;;;;2.03;0.60;;;15.20;99.90;15.40;99154.00;;;;337480;28;89424;-93
2022/09/25 00:50:48;;;;;;;1.50;0.65;;;15.20;99.90;15.20;99166.00;;;;339012;28;83873;-93
2022/09/25 00:51:00;;;;;;;1.10;0.32;;;15.20;99.90;15.00;99153.00;;;;340032;28;89806;-92
2022/09/25 00:51:12;;;;;;;0.80;0.20;;;15.20;99.90;15.00;99158.00;;;;339873;28;83546;-92
2022/09/25 00:51:28;;;;;;;0.70;0.22;;;15.10;99.90;15.10;99152.00;;;;336233;28;88766;-92
2022/09/25 00:51:58;;;;;;;1.45;0.60;;;15.20;99.90;15.00;99162.00;;;;336636;28;83526;-93
2022/09/25 00:52:12;;;;;;;1.13;0.40;;;15.10;99.90;15.10;99158.00;;;;337538;28;89641;-93
2022/09/25 00:52:23;;;;;;;1.67;0.65;;;15.10;99.90;15.20;99153.00;;;;339130;28;82487;-93
2022/09/25 00:52:35;;;;;;;2.13;0.77;;;15.10;99.90;15.20;99153.00;;;;337224;28;90736;-92
2022/09/25 00:52:47;;;;;;;2.63;0.73;;;15.10;99.90;15.20;99155.00;;;;340047;28;84053;-93
2022/09/25 00:53:08;;;;;;;2.80;0.93;;;15.10;99.90;15.30;99159.00;;;;337345;28;91321;-92
2022/09/25 00:53:29;;;;;;;4.10;1.70;;;15.10;99.90;15.20;99155.00;;;;338754;28;84095;-93
2022/09/25 00:53:40;;;;;;;3.70;1.20;;;15.10;99.90;15.20;99152.00;;;;337494;28;91978;-92
2022/09/25 00:53:52;;;;;;;3.28;1.00;;;15.10;99.90;15.10;99146.00;;;;335249;29;83305;-92
2022/09/25 00:54:05;;;;;;;2.72;1.15;;;15.10;99.90;15.20;99154.00;;;;337586;28;91192;-93
2022/09/25 00:54:24;;;;;;;1.73;0.98;;;15.10;99.90;15.20;99155.00;;;;335338;29;83698;-93
2022/09/25 00:54:48;;;;;;;1.58;0.80;;;15.10;99.90;15.10;99151.00;;;;337430;28;88039;-92
2022/09/25 00:55:04;;;;;;;1.92;0.90;;;15.10;99.90;15.10;99150.00;;;;335234;29;83862;-92
2022/09/25 00:55:16;;;;;;;1.77;0.77;;;15.10;99.90;15.10;99147.00;;;;337448;28;90643;-91
2022/09/25 00:55:31;;;;;;;1.40;0.52;;;15.10;99.90;15.20;99157.00;;;;338249;28;83739;-91
2022/09/25 00:55:43;;;;;;;1.85;0.40;;;15.10;99.90;15.10;99151.00;;;;334379;28;90748;-92
2022/09/25 00:55:55;;;;;;;1.70;0.40;;;15.10;99.90;15.20;99158.00;;;;342099;28;84044;-91
2022/09/25 00:56:08;;;;;;;0.90;0.40;;;15.10;99.90;15.30;99160.00;;;;337328;28;93570;-91
2022/09/25 00:56:20;;;;;;;0.93;0.30;;;15.10;99.90;15.20;99151.00;;;;340396;28;83869;-91
2022/09/25 00:56:37;;;;;;;1.00;0.30;;;15.10;99.90;15.30;99156.00;;;;335308;29;90162;-91
2022/09/25 00:56:50;;;;;;;1.20;0.40;;;15.10;99.90;15.30;99159.00;;;;339458;28;83749;-92
2022/09/25 00:57:06;;;;;;;1.35;0.40;;;15.10;99.90;15.40;99151.00;;;;334870;29;90254;-91
2022/09/25 00:57:20;;;;;;;1.30;0.40;;;15.10;99.90;15.40;99148.00;;;;338384;28;83786;-92
2022/09/25 00:57:32;;;;;;;1.15;0.50;;;15.10;99.90;15.40;99150.00;;;;335578;29;91478;-92
2022/09/25 00:57:46;;;;;;;1.00;0.50;;;15.20;99.90;15.30;99147.00;;;;336928;28;84102;-92
2022/09/25 00:57:57;;;;;;;0.90;0.40;;;15.20;99.90;15.40;99150.00;;;;337748;28;90858;-92
2022/09/25 00:58:10;;;;;;;0.90;0.35;;;15.20;99.90;15.40;99142.00;;;;340011;28;83908;-91
2022/09/25 00:58:23;;;;;;;0.80;0.30;;;15.10;99.90;15.40;99147.00;;;;341088;28;92358;-91
2022/09/25 00:58:35;;;;;;;0.80;0.30;;;15.20;99.90;15.20;99150.00;;;;339656;28;82258;-92
2022/09/25 00:58:47;;;;;;;1.20;0.30;;;15.20;99.90;15.10;99152.00;;;;341588;28;90948;-93
2022/09/25 00:58:59;;;;;;;1.30;0.50;;;15.20;99.90;15.20;99155.00;;;;339620;28;83366;-92
2022/09/25 00:59:16;;;;;;;1.25;0.60;;;15.20;99.90;15.40;99147.00;;;;340789;28;90580;-91
2022/09/25 00:59:43;;;;;;;0.70;0.30;;;15.20;99.90;15.40;99151.00;;;;337572;28;82813;-92
2022/09/25 01:00:00;;;;;;;2.28;0.60;;;15.20;99.90;15.20;99157.00;;;;337858;28;88493;-90
2022/09/25 01:00:13;;;;;;;2.90;0.60;;;15.20;99.90;15.20;99163.00;;;;339156;28;82310;-89
2022/09/25 01:00:24;;;;;;;1.75;0.30;;;15.20;99.90;15.20;99157.00;;;;341536;28;90152;-92
2022/09/25 01:00:36;;;;;;;1.58;0.60;;;15.10;99.90;15.30;99151.00;;;;339147;28;82488;-94
2022/09/25 01:00:49;;;;;;;2.35;0.70;;;15.20;99.90;15.40;99149.00;;;;337954;28;89147;-93
2022/09/25 01:01:01;;;;;;;2.80;0.65;;;15.20;99.90;15.40;99144.00;;;;340099;28;82450;-93
2022/09/25 01:01:13;;;;;;;3.08;0.77;;;15.20;99.90;15.40;99145.00;;;;340126;28;86944;-94
2022/09/25 01:01:25;;;;;;;2.40;1.08;;;15.20;99.90;15.40;99154.00;;;;341966;28;82650;-93
2022/09/25 01:01:37;;;;;;;2.88;1.48;;;15.20;99.90;15.30;99147.00;;;;337416;28;90901;-95
2022/09/25 01:01:49;;;;;;;2.42;1.30;;;15.20;99.90;15.20;99151.00;;;;337261;28;83386;-95
2022/09/25 01:02:01;;;;;;;2.22;0.68;;;15.20;99.90;15.30;99156.00;;;;336288;29;87409;-93